createdAt,value
2019-02-27T00:00:22.545Z,61.35
2019-02-27T00:02:51.162Z,57.83
2019-02-27T00:05:19.711Z,52.97
2019-02-27T00:07:48.252Z,48.00
2019-02-27T00:10:16.724Z,45.70
2019-02-27T00:12:45.192Z,44.27
2019-02-27T00:15:14.855Z,45.87
2019-02-27T00:17:43.408Z,49.43
2019-02-27T00:20:11.878Z,51.60
2019-02-27T00:22:41.416Z,55.87
2019-02-27T00:25:09.960Z,53.53
2019-02-27T00:27:38.442Z,53.87
2019-02-27T00:30:09.649Z,53.97
2019-02-27T00:32:38.117Z,55.73
2019-02-27T00:35:07.739Z,53.43
2019-02-27T00:37:36.285Z,51.10
2019-02-27T00:40:06.330Z,47.53
2019-02-27T00:42:34.812Z,30.07
2019-02-27T00:45:06.834Z,31.07
2019-02-27T00:47:33.601Z,27.57
2019-02-27T00:50:05.655Z,21.93
2019-02-27T00:52:32.334Z,24.10
2019-02-27T00:55:04.311Z,23.17
2019-02-27T00:57:31.012Z,35.53
2019-02-27T00:59:59.752Z,25.30
2019-02-27T01:02:28.312Z,31.87
2019-02-27T01:04:56.786Z,36.93
2019-02-27T01:07:25.390Z,37.97
2019-02-27T01:09:53.864Z,38.20
2019-02-27T01:12:22.981Z,49.13
2019-02-27T01:14:52.650Z,38.90
2019-02-27T01:17:23.894Z,38.53
2019-02-27T01:19:51.317Z,43.93
2019-02-27T01:22:19.919Z,37.90
2019-02-27T01:24:50.093Z,42.60
2019-02-27T01:27:18.587Z,38.60
2019-02-27T01:29:50.979Z,36.83
2019-02-27T01:32:17.402Z,40.47
2019-02-27T01:34:45.879Z,43.37
2019-02-27T01:37:14.406Z,40.00
2019-02-27T01:39:44.108Z,35.97
2019-02-27T01:42:13.334Z,37.37
2019-02-27T01:44:46.393Z,46.93
2019-02-27T01:47:14.061Z,43.00
2019-02-27T01:49:42.526Z,44.13
2019-02-27T01:52:11.908Z,48.40
2019-02-27T01:54:40.405Z,40.83
2019-02-27T01:57:08.879Z,45.47
2019-02-27T01:59:37.532Z,41.57
2019-02-27T02:02:06.090Z,45.40
2019-02-27T02:04:34.561Z,46.80
2019-02-27T02:07:03.976Z,40.17
2019-02-27T02:09:35.036Z,36.53
2019-02-27T02:12:09.179Z,44.47
2019-02-27T02:14:43.610Z,41.23
2019-02-27T02:17:31.680Z,48.90
2019-02-27T02:20:21.714Z,45.37
2019-02-27T02:23:13.996Z,42.10
2019-02-27T02:26:01.258Z,50.50
2019-02-27T02:28:35.443Z,53.37
2019-02-27T02:31:40.793Z,51.13
2019-02-27T02:34:31.906Z,50.47
2019-02-27T02:37:14.975Z,49.10
2019-02-27T02:39:54.656Z,46.70
2019-02-27T02:42:34.371Z,45.23
2019-02-27T02:45:20.638Z,56.50
2019-02-27T02:47:57.988Z,45.33
2019-02-27T02:50:54.036Z,54.00
2019-02-27T02:53:33.144Z,57.07
2019-02-27T02:56:13.533Z,48.60
2019-02-27T02:59:13.440Z,55.87
2019-02-27T03:01:49.285Z,61.57
2019-02-27T03:04:29.467Z,59.87
2019-02-27T03:07:15.622Z,58.23
2019-02-27T03:10:07.366Z,61.40
2019-02-27T03:12:55.625Z,57.00
2019-02-27T03:15:39.054Z,55.30
2019-02-27T03:18:14.384Z,56.27
2019-02-27T03:20:52.423Z,42.30
2019-02-27T03:23:50.603Z,46.10
2019-02-27T03:26:28.732Z,42.40
2019-02-27T03:29:02.853Z,41.60
2019-02-27T03:31:37.088Z,39.90
2019-02-27T03:34:11.415Z,41.10
2019-02-27T03:37:03.734Z,43.67
2019-02-27T03:39:38.142Z,42.47
2019-02-27T03:42:30.859Z,40.58
2019-02-27T03:45:30.990Z,45.93
2019-02-27T03:48:11.552Z,40.80
2019-02-27T03:50:49.422Z,43.43
2019-02-27T03:53:27.822Z,40.70
2019-02-27T03:56:12.294Z,38.00
2019-02-27T03:58:46.480Z,34.17
2019-02-27T04:01:37.724Z,31.75
2019-02-27T04:04:21.037Z,35.07
2019-02-27T04:07:01.268Z,29.90
2019-02-27T04:09:29.784Z,36.77
2019-02-27T04:11:58.323Z,35.00
2019-02-27T04:14:29.284Z,36.97
2019-02-27T04:16:57.964Z,36.37
2019-02-27T04:19:26.513Z,38.23
2019-02-27T04:22:00.641Z,40.63
2019-02-27T04:24:25.229Z,44.43
2019-02-27T04:26:53.714Z,44.17
2019-02-27T04:29:22.301Z,43.13
2019-02-27T04:31:50.786Z,46.37
2019-02-27T04:34:19.354Z,47.23
2019-02-27T04:36:47.893Z,46.03
2019-02-27T04:39:16.366Z,45.33
2019-02-27T04:41:46.034Z,45.52
2019-02-27T04:44:14.566Z,51.23
2019-02-27T04:46:43.035Z,44.77
2019-02-27T04:49:11.523Z,44.77
2019-02-27T04:51:40.045Z,51.73
2019-02-27T04:54:08.582Z,48.47
2019-02-27T04:56:37.054Z,50.53
2019-02-27T04:59:07.615Z,44.50
2019-02-27T05:01:37.313Z,42.53
2019-02-27T05:04:06.035Z,40.20
2019-02-27T05:06:36.551Z,44.60
2019-02-27T05:09:06.931Z,47.50
2019-02-27T05:11:35.401Z,51.17
2019-02-27T05:14:04.069Z,53.00
2019-02-27T05:16:32.540Z,60.67
2019-02-27T05:19:03.995Z,64.90
2019-02-27T05:21:31.597Z,55.77
2019-02-27T05:24:00.088Z,58.87
2019-02-27T05:26:28.570Z,51.83
2019-02-27T05:28:57.116Z,50.03
2019-02-27T05:31:25.588Z,45.90
2019-02-27T05:33:54.071Z,46.70
2019-02-27T05:36:22.706Z,46.43
2019-02-27T05:38:51.164Z,44.80
2019-02-27T05:41:19.732Z,45.73
2019-02-27T05:43:48.700Z,38.05
2019-02-27T05:46:17.212Z,40.85
2019-02-27T05:48:45.684Z,41.47
2019-02-27T05:51:14.221Z,43.20
2019-02-27T05:53:42.703Z,41.97
2019-02-27T05:56:15.491Z,44.10
2019-02-27T05:58:41.530Z,47.27
2019-02-27T06:01:10.572Z,45.20
2019-02-27T06:03:39.292Z,44.23
2019-02-27T06:06:11.581Z,47.10
2019-02-27T06:08:38.186Z,46.88
2019-02-27T06:11:06.600Z,46.50
2019-02-27T06:13:35.131Z,45.30
2019-02-27T06:16:05.773Z,49.50
2019-02-27T06:18:33.880Z,55.03
2019-02-27T06:21:02.486Z,60.13
2019-02-27T06:23:30.958Z,62.83
2019-02-27T06:26:00.252Z,62.87
2019-02-27T06:28:28.864Z,68.37
2019-02-27T06:30:57.364Z,69.07
2019-02-27T06:33:25.837Z,80.20
2019-02-27T06:35:54.432Z,109.13
2019-02-27T06:38:25.230Z,107.73
2019-02-27T06:40:53.122Z,104.60
2019-02-27T06:43:21.657Z,120.10
2019-02-27T06:45:50.153Z,97.93
2019-02-27T06:48:18.647Z,100.73
2019-02-27T06:50:47.188Z,60.60
2019-02-27T06:53:16.660Z,62.03
2019-02-27T06:55:45.108Z,72.20
2019-02-27T06:58:14.839Z,73.27
2019-02-27T07:00:44.027Z,62.10
2019-02-27T07:03:13.176Z,63.43
2019-02-27T07:05:41.734Z,58.67
2019-02-27T07:08:10.339Z,72.57
2019-02-27T07:10:38.817Z,74.77
2019-02-27T07:13:07.346Z,60.23
2019-02-27T07:15:36.717Z,62.73
2019-02-27T07:18:06.219Z,57.10
2019-02-27T07:20:35.205Z,50.43
2019-02-27T07:23:03.750Z,50.57
2019-02-27T07:25:32.232Z,54.27
2019-02-27T07:28:00.756Z,59.27
2019-02-27T07:30:29.296Z,54.55
2019-02-27T07:32:57.791Z,43.30
2019-02-27T07:35:29.121Z,36.60
2019-02-27T07:37:56.543Z,41.47
2019-02-27T07:40:25.023Z,46.80
2019-02-27T07:42:53.578Z,41.20
2019-02-27T07:45:23.190Z,47.03
2019-02-27T07:47:52.013Z,45.17
2019-02-27T07:50:21.595Z,43.13
2019-02-27T07:52:51.992Z,40.10
2019-02-27T07:55:22.968Z,41.97
2019-02-27T07:57:50.518Z,35.50
2019-02-27T08:00:23.289Z,37.03
2019-02-27T08:02:51.746Z,41.27
2019-02-27T08:05:21.127Z,43.60
2019-02-27T08:07:49.944Z,41.17
2019-02-27T08:10:20.802Z,32.47
2019-02-27T08:12:49.399Z,28.23
2019-02-27T08:15:21.051Z,42.90
2019-02-27T08:17:49.847Z,29.37
2019-02-27T08:20:21.077Z,34.67
2019-02-27T08:22:49.702Z,33.57
2019-02-27T08:25:19.058Z,28.43
2019-02-27T08:27:47.746Z,29.27
2019-02-27T08:30:18.757Z,35.70
2019-02-27T08:32:47.373Z,35.83
2019-02-27T08:35:16.655Z,32.90
2019-02-27T08:37:45.396Z,31.13
2019-02-27T08:40:14.702Z,27.03
2019-02-27T08:42:43.581Z,30.53
2019-02-27T08:45:19.939Z,31.90
2019-02-27T08:47:47.765Z,29.67
2019-02-27T08:50:21.478Z,31.33
2019-02-27T08:52:51.431Z,26.87
2019-02-27T08:55:22.537Z,29.33
2019-02-27T08:57:55.986Z,29.00
2019-02-27T09:00:26.858Z,32.37
2019-02-27T09:02:55.900Z,31.37
2019-02-27T09:05:24.622Z,32.50
2019-02-27T09:07:53.630Z,33.67
2019-02-27T09:10:30.283Z,32.13
2019-02-27T09:13:04.832Z,28.57
2019-02-27T09:15:26.867Z,30.03
2019-02-27T09:17:55.404Z,30.20
2019-02-27T09:20:23.949Z,29.20
2019-02-27T09:22:52.476Z,29.60
2019-02-27T09:25:23.702Z,27.30
2019-02-27T09:27:51.260Z,27.30
2019-02-27T09:30:28.978Z,27.00
2019-02-27T09:32:54.346Z,25.90
2019-02-27T09:35:23.848Z,28.90
2019-02-27T09:37:52.386Z,29.37
2019-02-27T09:40:25.611Z,23.67
2019-02-27T09:42:54.232Z,26.80
2019-02-27T09:45:27.609Z,26.20
2019-02-27T09:47:59.506Z,25.57
2019-02-27T09:50:34.352Z,31.20
2019-02-27T09:53:03.702Z,31.10
2019-02-27T09:55:32.987Z,32.53
2019-02-27T09:58:01.781Z,34.97
2019-02-27T10:00:47.609Z,26.33
2019-02-27T10:03:20.181Z,29.70
2019-02-27T10:05:46.824Z,30.07
2019-02-27T10:08:16.104Z,30.80
2019-02-27T10:10:45.956Z,36.60
2019-02-27T10:13:14.494Z,27.37
2019-02-27T10:15:43.026Z,33.57
2019-02-27T10:18:11.565Z,36.47
2019-02-27T10:20:40.095Z,36.23
2019-02-27T10:23:08.622Z,33.43
2019-02-27T10:25:37.237Z,34.43
2019-02-27T10:28:06.061Z,30.77
2019-02-27T10:30:34.604Z,32.77
2019-02-27T10:33:03.595Z,40.63
2019-02-27T10:35:32.226Z,36.37
2019-02-27T10:38:00.758Z,23.80
2019-02-27T10:40:29.337Z,34.00
2019-02-27T10:42:57.979Z,30.63
2019-02-27T10:45:26.445Z,29.93
2019-02-27T10:47:54.967Z,33.40
2019-02-27T10:50:23.416Z,32.53
2019-02-27T10:52:52.144Z,30.57
2019-02-27T10:55:22.114Z,33.30
2019-02-27T10:57:50.854Z,25.07
2019-02-27T11:00:26.129Z,28.03
2019-02-27T11:02:54.825Z,30.40
2019-02-27T11:05:24.343Z,22.37
2019-02-27T11:07:53.649Z,26.40
2019-02-27T11:10:22.522Z,23.40
2019-02-27T11:12:51.182Z,19.63
2019-02-27T11:15:20.689Z,17.13
2019-02-27T11:17:49.263Z,21.27
2019-02-27T11:20:21.190Z,17.97
2019-02-27T11:22:47.961Z,15.90
2019-02-27T11:25:23.142Z,17.43
2019-02-27T11:27:51.737Z,17.97
2019-02-27T11:30:28.976Z,16.93
2019-02-27T11:32:58.002Z,13.60
2019-02-27T11:35:26.572Z,14.23
2019-02-27T11:37:55.124Z,15.50
2019-02-27T11:40:25.794Z,15.53
2019-02-27T11:42:54.327Z,15.50
2019-02-27T11:45:24.715Z,14.33
2019-02-27T11:47:53.429Z,12.47
2019-02-27T11:50:22.065Z,12.03
2019-02-27T11:52:51.021Z,11.33
2019-02-27T11:55:20.828Z,13.87
2019-02-27T11:57:49.530Z,14.63
2019-02-27T12:00:28.250Z,15.60
2019-02-27T12:02:57.358Z,13.43
2019-02-27T12:05:30.810Z,13.80
2019-02-27T12:07:57.918Z,12.60
2019-02-27T12:10:28.696Z,13.10
2019-02-27T12:13:00.878Z,12.00
2019-02-27T12:15:28.249Z,11.63
2019-02-27T12:17:59.725Z,11.47
2019-02-27T12:20:27.170Z,12.50
2019-02-27T12:22:55.720Z,11.07
2019-02-27T12:25:27.224Z,10.40
2019-02-27T12:27:56.206Z,11.30
2019-02-27T12:30:30.052Z,10.27
2019-02-27T12:32:58.580Z,12.50
2019-02-27T12:35:32.467Z,11.47
2019-02-27T12:38:01.002Z,10.23
2019-02-27T12:40:29.542Z,10.03
2019-02-27T12:42:58.053Z,10.57
2019-02-27T12:45:29.844Z,9.23
2019-02-27T12:47:58.634Z,9.50
2019-02-27T12:50:31.209Z,10.03
2019-02-27T12:52:59.097Z,10.27
2019-02-27T12:55:27.905Z,9.00
2019-02-27T12:57:56.550Z,8.10
2019-02-27T13:00:29.952Z,10.27
2019-02-27T13:02:59.348Z,9.67
2019-02-27T13:05:28.528Z,9.43
2019-02-27T13:07:57.611Z,9.10
2019-02-27T13:10:27.213Z,8.47
2019-02-27T13:12:56.122Z,8.83
2019-02-27T13:15:30.823Z,9.60
2019-02-27T13:17:59.439Z,9.43
2019-02-27T13:20:29.253Z,9.47
2019-02-27T13:22:57.841Z,10.53
2019-02-27T13:25:26.446Z,10.57
2019-02-27T13:27:54.995Z,11.13
2019-02-27T13:30:24.926Z,12.10
2019-02-27T13:32:53.641Z,16.60
2019-02-27T13:35:23.186Z,17.67
2019-02-27T13:37:52.578Z,16.97
2019-02-27T13:40:23.445Z,10.60
2019-02-27T13:42:53.443Z,10.20
2019-02-27T13:45:24.456Z,9.57
2019-02-27T13:47:53.092Z,8.00
2019-02-27T13:50:23.601Z,8.60
2019-02-27T13:52:52.135Z,7.17
2019-02-27T13:55:22.133Z,8.00
2019-02-27T13:57:50.653Z,6.90
2019-02-27T14:00:36.971Z,6.10
2019-02-27T14:03:05.586Z,6.57
2019-02-27T14:05:36.080Z,6.00
2019-02-27T14:08:06.231Z,5.45
2019-02-27T14:10:35.364Z,5.25
2019-02-27T14:13:08.767Z,5.13
2019-02-27T14:15:34.426Z,4.45
2019-02-27T14:18:03.166Z,4.20
2019-02-27T14:20:31.804Z,4.37
2019-02-27T14:23:00.389Z,3.92
2019-02-27T14:25:33.630Z,3.60
2019-02-27T14:28:02.154Z,4.25
2019-02-27T14:30:42.643Z,3.77
2019-02-27T14:33:11.207Z,4.80
2019-02-27T14:35:39.677Z,4.43
2019-02-27T14:38:08.278Z,4.87
2019-02-27T14:40:40.083Z,4.57
2019-02-27T14:43:07.261Z,5.93
2019-02-27T14:45:39.423Z,5.70
2019-02-27T14:48:06.047Z,6.17
2019-02-27T14:50:34.912Z,6.50
2019-02-27T14:53:03.821Z,6.33
2019-02-27T14:55:36.164Z,6.50
2019-02-27T14:58:02.677Z,6.43
2019-02-27T15:00:39.819Z,6.00
2019-02-27T15:03:07.393Z,7.07
2019-02-27T15:05:36.993Z,6.77
2019-02-27T15:08:06.413Z,7.50
2019-02-27T15:10:34.919Z,7.90
2019-02-27T15:13:03.380Z,7.63
2019-02-27T15:15:32.850Z,7.60
2019-02-27T15:18:01.556Z,7.50
2019-02-27T15:20:34.650Z,7.73
2019-02-27T15:23:03.429Z,6.80
2019-02-27T15:25:31.883Z,6.77
2019-02-27T15:28:00.423Z,6.17
2019-02-27T15:30:31.237Z,6.17
2019-02-27T15:33:03.793Z,6.43
2019-02-27T15:35:30.218Z,6.67
2019-02-27T15:37:59.259Z,6.30
2019-02-27T15:40:30.125Z,6.60
2019-02-27T15:42:59.178Z,6.20
2019-02-27T15:45:28.703Z,5.73
2019-02-27T15:47:57.290Z,5.50
2019-02-27T15:50:33.292Z,5.50
2019-02-27T15:53:01.702Z,5.43
2019-02-27T15:55:34.161Z,6.77
2019-02-27T15:58:01.673Z,5.57
2019-02-27T16:00:30.377Z,5.20
2019-02-27T16:02:58.927Z,5.17
2019-02-27T16:05:31.229Z,6.57
2019-02-27T16:07:58.658Z,9.83
2019-02-27T16:10:28.251Z,5.90
2019-02-27T16:12:59.867Z,6.00
2019-02-27T16:15:27.113Z,7.00
2019-02-27T16:17:55.663Z,7.77
2019-02-27T16:20:25.601Z,8.20
2019-02-27T16:22:54.550Z,7.30
2019-02-27T16:25:27.733Z,8.53
2019-02-27T16:27:56.264Z,9.47
2019-02-27T16:30:32.414Z,10.50
2019-02-27T16:33:02.087Z,12.40
2019-02-27T16:35:30.767Z,14.17
2019-02-27T16:37:59.215Z,14.13
2019-02-27T16:40:29.208Z,16.10
2019-02-27T16:42:57.690Z,14.60
2019-02-27T16:45:33.918Z,14.37
2019-02-27T16:48:01.739Z,14.07
2019-02-27T16:50:31.130Z,14.60
2019-02-27T16:52:59.774Z,14.53
2019-02-27T16:55:29.047Z,16.13
2019-02-27T16:57:57.944Z,16.57
2019-02-27T17:00:32.579Z,14.43
2019-02-27T17:03:01.254Z,15.93
2019-02-27T17:05:31.787Z,16.37
2019-02-27T17:08:02.283Z,16.27
2019-02-27T17:10:34.742Z,18.03
2019-02-27T17:13:03.219Z,19.23
2019-02-27T17:15:35.197Z,18.53
2019-02-27T17:18:02.010Z,19.03
2019-02-27T17:20:30.486Z,19.77
2019-02-27T17:22:59.082Z,20.93
2019-02-27T17:25:30.113Z,21.60
2019-02-27T17:27:58.932Z,22.50
2019-02-27T17:30:37.727Z,22.23
2019-02-27T17:33:06.246Z,23.17
2019-02-27T17:35:34.697Z,23.60
2019-02-27T17:38:03.378Z,23.13
2019-02-27T17:40:36.686Z,58.37
2019-02-27T17:43:03.616Z,60.77
2019-02-27T17:45:32.364Z,39.10
2019-02-27T17:48:00.846Z,29.20
2019-02-27T17:50:31.674Z,30.50
2019-02-27T17:52:59.668Z,33.53
2019-02-27T17:55:28.177Z,40.80
2019-02-27T17:57:58.459Z,50.23
2019-02-27T18:00:30.816Z,44.43
2019-02-27T18:02:59.275Z,37.90
2019-02-27T18:05:29.461Z,35.97
2019-02-27T18:07:58.091Z,36.77
2019-02-27T18:10:26.555Z,35.00
2019-02-27T18:12:55.088Z,34.47
2019-02-27T18:15:24.781Z,35.60
2019-02-27T18:17:53.524Z,33.63
2019-02-27T18:20:25.550Z,33.17
2019-02-27T18:22:52.292Z,33.67
2019-02-27T18:25:21.219Z,33.47
2019-02-27T18:27:49.814Z,33.07
2019-02-27T18:30:20.152Z,33.67
2019-02-27T18:32:49.382Z,35.80
2019-02-27T18:35:19.102Z,34.63
2019-02-27T18:37:53.092Z,34.40
2019-02-27T18:40:19.085Z,36.60
2019-02-27T18:42:47.687Z,37.30
2019-02-27T18:45:21.460Z,37.73
2019-02-27T18:47:49.988Z,43.63
2019-02-27T18:50:18.531Z,45.07
2019-02-27T18:52:47.028Z,49.47
2019-02-27T18:55:16.237Z,59.63
2019-02-27T18:57:47.159Z,51.90
2019-02-27T19:00:21.313Z,54.53
2019-02-27T19:02:52.347Z,52.80
2019-02-27T19:05:22.081Z,44.53
2019-02-27T19:07:53.639Z,42.57
2019-02-27T19:10:21.374Z,45.30
2019-02-27T19:12:50.078Z,57.00
2019-02-27T19:15:24.229Z,60.73
2019-02-27T19:17:52.931Z,56.93
2019-02-27T19:20:25.086Z,57.20
2019-02-27T19:22:53.953Z,61.27
2019-02-27T19:25:22.520Z,59.40
2019-02-27T19:27:51.063Z,56.07
2019-02-27T19:30:21.060Z,50.73
2019-02-27T19:32:49.762Z,45.60
2019-02-27T19:35:21.657Z,41.33
2019-02-27T19:37:51.021Z,59.03
2019-02-27T19:40:21.226Z,60.23
2019-02-27T19:42:55.009Z,59.50
2019-02-27T19:45:23.749Z,56.93
2019-02-27T19:47:54.779Z,47.27
2019-02-27T19:50:22.662Z,47.70
2019-02-27T19:52:51.321Z,48.50
2019-02-27T19:55:19.781Z,50.70
2019-02-27T19:57:48.551Z,50.13
2019-02-27T20:00:22.844Z,48.47
2019-02-27T20:02:54.887Z,46.37
2019-02-27T20:05:22.283Z,47.43
2019-02-27T20:07:51.282Z,48.27
2019-02-27T20:10:19.870Z,48.47
2019-02-27T20:12:52.758Z,46.70
2019-02-27T20:15:20.745Z,45.10
2019-02-27T20:17:51.971Z,43.53
2019-02-27T20:20:23.335Z,43.23
2019-02-27T20:22:53.621Z,42.50
2019-02-27T20:25:32.792Z,44.77
2019-02-27T20:28:01.938Z,43.63
2019-02-27T20:30:30.428Z,42.33
2019-02-27T20:33:02.499Z,40.43
2019-02-27T20:35:30.162Z,39.53
2019-02-27T20:37:58.892Z,44.07
2019-02-27T20:40:27.953Z,41.83
2019-02-27T20:42:56.580Z,42.83
2019-02-27T20:45:26.672Z,40.60
2019-02-27T20:47:59.982Z,41.10
2019-02-27T20:50:34.788Z,41.00
2019-02-27T20:53:01.548Z,41.27
2019-02-27T20:55:30.862Z,42.80
2019-02-27T20:58:00.223Z,40.80
2019-02-27T21:00:28.826Z,41.90
2019-02-27T21:02:57.296Z,39.83
2019-02-27T21:05:26.220Z,39.97
2019-02-27T21:08:00.751Z,47.60
2019-02-27T21:10:29.395Z,44.67
2019-02-27T21:12:57.943Z,38.73
2019-02-27T21:15:29.333Z,39.07
2019-02-27T21:17:58.622Z,40.07
2019-02-27T21:20:27.377Z,41.00
2019-02-27T21:23:02.431Z,42.43
2019-02-27T21:25:30.909Z,41.30
2019-02-27T21:28:00.035Z,42.80
2019-02-27T21:30:28.709Z,40.07
2019-02-27T21:32:57.778Z,40.67
2019-02-27T21:35:29.663Z,39.97
2019-02-27T21:37:57.898Z,37.30
2019-02-27T21:40:27.364Z,38.97
2019-02-27T21:42:56.440Z,39.37
2019-02-27T21:45:25.106Z,40.80
2019-02-27T21:47:54.145Z,40.60
2019-02-27T21:50:25.870Z,42.60
2019-02-27T21:52:55.807Z,45.80
2019-02-27T21:55:25.284Z,48.17
2019-02-27T21:57:58.060Z,45.70
2019-02-27T22:00:27.912Z,49.55
2019-02-27T22:02:58.251Z,49.83
2019-02-27T22:05:27.530Z,47.27
2019-02-27T22:07:56.799Z,48.87
2019-02-27T22:10:26.019Z,46.43
2019-02-27T22:12:55.125Z,49.03
2019-02-27T22:15:28.676Z,51.83
2019-02-27T22:17:58.277Z,51.40
2019-02-27T22:20:27.543Z,48.13
2019-02-27T22:22:56.691Z,47.20
2019-02-27T22:25:29.841Z,44.47
2019-02-27T22:27:58.466Z,43.77
2019-02-27T22:30:27.672Z,42.73
2019-02-27T22:32:56.837Z,42.23
2019-02-27T22:35:25.926Z,42.73
2019-02-27T22:37:55.384Z,41.73
2019-02-27T22:40:25.254Z,43.03
2019-02-27T22:42:54.368Z,43.60
2019-02-27T22:45:23.461Z,44.83
2019-02-27T22:47:53.857Z,45.40
2019-02-27T22:50:23.421Z,51.33
2019-02-27T22:52:54.642Z,46.97
2019-02-27T22:55:23.515Z,47.30
2019-02-27T22:57:54.789Z,49.40
2019-02-27T23:00:56.270Z,50.50
2019-02-27T23:03:37.503Z,49.80
2019-02-27T23:06:09.213Z,53.57
2019-02-27T23:08:38.743Z,52.50
2019-02-27T23:11:08.391Z,52.10
2019-02-27T23:13:37.807Z,52.13
2019-02-27T23:16:07.098Z,53.13
2019-02-27T23:18:37.444Z,54.07
2019-02-27T23:21:07.234Z,57.53
2019-02-27T23:23:36.798Z,55.50
2019-02-27T23:26:06.678Z,53.07
2019-02-27T23:28:35.850Z,51.23
2019-02-27T23:31:05.107Z,51.43
2019-02-27T23:33:36.658Z,48.93
2019-02-27T23:36:05.089Z,73.50
2019-02-27T23:38:34.896Z,55.30
2019-02-27T23:41:05.758Z,69.90
2019-02-27T23:43:36.882Z,74.70
2019-02-27T23:46:06.013Z,88.77
2019-02-27T23:48:36.203Z,92.67
2019-02-27T23:51:06.063Z,96.07
2019-02-27T23:53:35.317Z,97.67
2019-02-27T23:56:05.376Z,101.97
2019-02-27T23:58:34.578Z,110.63
